Time;durP1;ratioP1;P1;durP2;ratioP2;P2;SDS_P1;SDS_P2;PMS_P1;PMS_P2;Temp;Humidity;BMP_temperature;BMP_pressure;BME280_temperature;BME280_humidity;BME280_pressure;Samples;Min_cycle;Max_cycle;Signal;HPM_P1;HPM_P2
2022/05/13 00:00:04;;;;;;;1.50;0.70;;;;;;;11.02;57.31;101757.16;4980305;28;20034;-75
2022/05/13 00:02:30;;;;;;;0.50;0.50;;;;;;;11.01;57.41;101760.59;4979585;28;20098;-75
2022/05/13 00:04:55;;;;;;;1.33;0.80;;;;;;;10.95;58.50;101750.25;4980051;28;20062;-75
2022/05/13 00:07:20;;;;;;;0.73;0.50;;;;;;;10.91;57.41;101759.78;4980003;28;20035;-75
2022/05/13 00:09:59;;;;;;;1.37;0.87;;;;;;;10.90;57.82;101752.84;4979118;28;20038;-75
2022/05/13 00:12:25;;;;;;;0.68;0.55;;;;;;;10.90;57.79;101758.06;4980422;28;20077;-75
2022/05/13 00:14:51;;;;;;;1.25;0.90;;;;;;;10.85;58.30;101754.59;4979827;28;20030;-75
2022/05/13 00:17:17;;;;;;;0.50;0.50;;;;;;;10.80;58.81;101757.19;4978476;28;20049;-75
2022/05/13 00:19:42;;;;;;;0.60;0.60;;;;;;;10.74;60.29;101751.13;4979972;28;20391;-75
2022/05/13 00:22:07;;;;;;;0.47;0.47;;;;;;;10.69;58.84;101753.75;4979932;28;20491;-75
2022/05/13 00:24:33;;;;;;;0.70;0.70;;;;;;;10.67;60.84;101752.88;4979289;28;20332;-75
2022/05/13 00:26:58;;;;;;;0.90;0.80;;;;;;;10.64;59.79;101750.28;4979688;28;20055;-75
2022/05/13 00:29:23;;;;;;;1.00;0.90;;;;;;;10.63;61.06;101749.41;4980231;28;20015;-75
2022/05/13 00:31:49;;;;;;;3.10;1.27;;;;;;;10.61;63.30;101747.72;4978811;28;20039;-74
2022/05/13 00:34:14;;;;;;;1.13;1.03;;;;;;;10.57;61.13;101746.84;4980072;28;20027;-75
2022/05/13 00:36:40;;;;;;;2.20;1.33;;;;;;;10.60;59.89;101749.41;4979730;28;20035;-75
2022/05/13 00:39:06;;;;;;;0.77;0.77;;;;;;;10.58;60.38;101745.97;4978852;28;20073;-75
2022/05/13 00:41:33;;;;;;;1.15;1.05;;;;;;;10.55;62.83;101735.59;4980091;28;20379;-75
2022/05/13 00:43:58;;;;;;;1.95;1.20;;;;;;;10.53;62.91;101745.09;4979654;28;20043;-75
2022/05/13 00:46:26;;;;;;;0.90;0.73;;;;;;;10.52;62.55;101748.56;4979310;28;20030;-75
2022/05/13 00:48:52;;;;;;;1.02;0.95;;;;;;;10.54;62.37;101743.38;4979289;28;20074;-75
2022/05/13 00:51:26;;;;;;;1.33;1.15;;;;;;;10.54;60.33;101746.84;4979074;28;20031;-75
2022/05/13 00:53:51;;;;;;;0.98;0.90;;;;;;;10.54;61.38;101746.84;4979681;28;20037;-75
2022/05/13 00:56:19;;;;;;;1.67;1.10;;;;;;;10.52;66.44;101743.38;4980085;28;20019;-75
2022/05/13 00:58:47;;;;;;;1.50;1.40;;;;;;;10.47;63.29;101743.38;4978914;28;20023;-75
2022/05/13 01:01:14;;;;;;;1.38;1.10;;;;;;;10.42;62.61;101739.91;4978594;28;20088;-75
2022/05/13 01:03:40;;;;;;;1.23;1.13;;;;;;;10.43;62.47;101745.97;4976151;28;20066;-75
2022/05/13 01:06:12;;;;;;;0.90;0.90;;;;;;;10.41;62.03;101737.31;4976018;28;20478;-75
2022/05/13 01:08:39;;;;;;;1.20;0.93;;;;;;;10.39;62.38;101739.94;4976381;28;20042;-75
2022/05/13 01:11:09;;;;;;;2.03;1.40;;;;;;;10.36;65.79;101742.47;4976894;28;20027;-75
2022/05/13 01:13:37;;;;;;;2.35;1.48;;;;;;;10.31;66.39;101731.22;4975767;28;20755;-75
2022/05/13 01:16:03;;;;;;;2.60;1.50;;;;;;;10.28;63.08;101736.44;4976180;28;20066;-75
2022/05/13 01:18:31;;;;;;;1.87;1.50;;;;;;;10.27;64.39;101732.13;4976545;28;20463;-74
2022/05/13 01:20:58;;;;;;;2.65;1.48;;;;;;;10.23;64.68;101735.56;4974973;28;20798;-75
2022/05/13 01:23:56;;;;;;;2.50;1.60;;;;;;;10.19;67.15;101737.28;4975727;28;20027;-75
2022/05/13 01:26:29;;;;;;;2.75;1.60;;;;;;;10.15;63.39;101732.94;4942995;28;20390;-74
2022/05/13 01:28:56;;;;;;;1.83;1.35;;;;;;;10.15;65.13;101733.84;4975944;28;20023;-74
2022/05/13 01:31:31;;;;;;;;;;;;;;;10.13;64.77;101734.72;4976756;28;20050;-74
2022/05/13 01:34:02;;;;;;;3.33;1.58;;;;;;;10.06;64.66;101731.25;4975415;28;19918;-74
2022/05/13 01:36:29;;;;;;;3.17;1.92;;;;;;;10.02;65.23;101732.09;4976339;28;20034;-74
2022/05/13 01:38:55;;;;;;;2.58;1.50;;;;;;;9.99;65.37;101735.53;4975395;28;20046;-75
2022/05/13 01:41:21;;;;;;;1.48;1.20;;;;;;;9.98;64.35;101744.19;4975242;28;20030;-75
2022/05/13 01:43:49;;;;;;;2.10;1.50;;;;;;;9.98;65.32;101740.72;4975923;28;20070;-75
2022/05/13 01:46:15;;;;;;;2.00;1.50;;;;;;;9.97;65.81;101746.75;4975732;28;20380;-75
2022/05/13 01:48:41;;;;;;;2.17;1.50;;;;;;;9.98;63.83;101749.38;4974961;28;20038;-74
2022/05/13 01:51:06;;;;;;;2.33;1.07;;;;;;;9.99;64.54;101747.63;4976132;28;20038;-75
2022/05/13 01:53:31;;;;;;;1.80;1.37;;;;;;;9.99;64.42;101745.91;4975814;28;20029;-74
2022/05/13 01:55:58;;;;;;;1.10;1.10;;;;;;;10.03;64.13;101745.03;4974908;28;20097;-75
2022/05/13 01:58:24;;;;;;;1.08;0.98;;;;;;;10.07;64.56;101745.94;4975963;28;20031;-75
2022/05/13 02:00:53;;;;;;;2.85;1.20;;;;;;;10.08;64.96;101742.44;4975451;28;20026;-75
2022/05/13 02:06:04;;;;;;;1.95;1.40;;;;;;;10.09;64.70;101751.97;4976093;28;20046;-74
2022/05/13 02:08:30;;;;;;;3.10;1.40;;;;;;;10.06;64.87;101736.44;4975517;28;20035;-75
2022/05/13 02:10:56;;;;;;;2.50;1.50;;;;;;;10.07;64.62;101748.53;4973980;28;20038;-75
2022/05/13 02:13:22;;;;;;;2.10;1.50;;;;;;;10.07;64.70;101747.66;4974943;28;20031;-75
2022/05/13 02:15:47;;;;;;;1.85;1.50;;;;;;;10.05;65.23;101745.91;4974886;28;20031;-75
2022/05/13 02:18:13;;;;;;;1.60;1.50;;;;;;;10.05;65.96;101740.72;4975592;28;20086;-75
2022/05/13 02:20:40;;;;;;;2.13;1.50;;;;;;;10.01;65.02;101739.00;4977020;28;20038;-74
2022/05/13 02:23:05;;;;;;;1.67;1.40;;;;;;;9.99;63.33;101729.47;4975739;28;20431;-75
2022/05/13 02:25:31;;;;;;;1.57;1.40;;;;;;;9.98;64.84;101727.75;4975860;28;20064;-74
2022/05/13 02:28:01;;;;;;;1.97;1.40;;;;;;;9.98;66.17;101736.41;4975141;28;20093;-75
2022/05/13 02:30:28;;;;;;;1.92;1.17;;;;;;;9.98;65.24;101735.53;4974707;28;20019;-74
2022/05/13 02:32:54;;;;;;;1.15;1.00;;;;;;;9.97;64.82;101738.97;4974773;28;20035;-74
2022/05/13 02:35:19;;;;;;;1.00;1.00;;;;;;;9.97;64.10;101739.84;4975108;28;20027;-75
2022/05/13 02:37:45;;;;;;;1.57;1.23;;;;;;;9.96;67.13;101729.50;4974068;28;20023;-74
2022/05/13 02:40:12;;;;;;;1.57;1.47;;;;;;;9.91;68.33;101721.69;4975502;28;20062;-75
2022/05/13 02:42:37;;;;;;;2.42;1.52;;;;;;;9.94;66.81;101739.84;4975023;28;20039;-75
2022/05/13 02:45:03;;;;;;;5.67;1.60;;;;;;;9.94;67.78;101728.63;4974355;28;20030;-74
2022/05/13 02:47:29;;;;;;;2.43;1.50;;;;;;;9.94;67.13;101737.25;4974974;28;20022;-74
2022/05/13 02:52:38;;;;;;;1.77;1.20;;;;;;;9.98;66.20;101726.03;4973978;28;20037;-74
2022/05/13 02:55:04;;;;;;;2.43;1.37;;;;;;;9.97;66.40;101724.31;4974449;28;20031;-74
2022/05/13 02:57:30;;;;;;;1.42;1.27;;;;;;;9.98;67.08;101728.63;4974285;28;20400;-74
2022/05/13 02:59:55;;;;;;;1.67;1.30;;;;;;;9.98;66.54;101736.41;4973581;28;20022;-74
2022/05/13 03:02:21;;;;;;;1.23;1.13;;;;;;;9.97;66.39;101721.72;4974812;28;20035;-75
2022/05/13 03:04:46;;;;;;;2.07;1.20;;;;;;;10.00;67.83;101721.72;4973281;28;20110;-74
2022/05/13 03:07:11;;;;;;;1.07;0.90;;;;;;;10.03;65.54;101737.25;4974170;28;20360;-74
2022/05/13 03:09:37;;;;;;;2.47;1.40;;;;;;;10.02;66.46;101732.09;4974352;28;20023;-74
2022/05/13 03:12:02;;;;;;;1.10;1.10;;;;;;;10.03;67.74;101731.22;4974125;28;20375;-75
2022/05/13 03:14:28;;;;;;;3.90;1.40;;;;;;;10.05;66.49;101730.34;4974495;28;20390;-75
2022/05/13 03:16:53;;;;;;;1.40;1.20;;;;;;;10.07;67.26;101729.50;4974051;28;20073;-75
2022/05/13 03:19:21;;;;;;;1.67;1.20;;;;;;;10.08;66.21;101726.03;4973993;28;20030;-75
2022/05/13 03:21:47;;;;;;;1.17;1.10;;;;;;;10.08;68.19;101724.28;4974329;28;20488;-74
2022/05/13 03:24:12;;;;;;;2.23;1.10;;;;;;;10.10;68.43;101722.56;4973591;28;20091;-75
2022/05/13 03:26:37;;;;;;;1.50;1.10;;;;;;;10.10;66.98;101725.16;4973082;28;20041;-74
2022/05/13 03:29:04;;;;;;;3.53;1.50;;;;;;;10.08;68.91;101720.84;4974423;28;20494;-74
2022/05/13 03:31:31;;;;;;;1.95;1.30;;;;;;;10.08;67.19;101716.50;4974393;28;20391;-75
2022/05/13 03:33:56;;;;;;;4.22;1.60;;;;;;;10.10;68.38;101717.38;4973741;28;20974;-74
2022/05/13 03:36:21;;;;;;;2.63;1.73;;;;;;;10.08;67.87;101718.25;4974495;28;20054;-74
2022/05/13 03:38:46;;;;;;;3.23;1.40;;;;;;;10.08;67.69;101716.50;4973759;28;20102;-75
2022/05/13 03:41:12;;;;;;;2.30;1.50;;;;;;;10.06;68.38;101720.88;4972939;28;20035;-74
2022/05/13 03:43:38;;;;;;;3.40;1.70;;;;;;;10.05;68.58;101724.31;4973862;28;20023;-74
2022/05/13 03:46:03;;;;;;;1.93;1.30;;;;;;;10.04;67.09;101722.59;4974664;28;20174;-75
2022/05/13 03:48:34;;;;;;;2.17;1.50;;;;;;;10.03;69.40;101726.88;4973162;28;20023;-74
2022/05/13 03:51:00;;;;;;;3.95;1.58;;;;;;;10.01;68.63;101723.47;4973901;28;20073;-75
2022/05/13 03:53:29;;;;;;;3.57;2.00;;;;;;;9.98;68.84;101719.97;4974716;28;20050;-75
2022/05/13 03:55:54;;;;;;;3.08;2.00;;;;;;;9.96;70.41;101725.16;4972781;28;20302;-75
2022/05/13 03:58:19;;;;;;;2.40;1.80;;;;;;;9.95;69.93;101718.25;4974531;28;20038;-75
2022/05/13 04:00:45;;;;;;;3.67;1.73;;;;;;;9.91;69.38;101715.66;4973814;28;20031;-75
2022/05/13 04:03:11;;;;;;;3.17;1.53;;;;;;;9.93;68.25;101725.16;4972952;28;20050;-75
2022/05/13 04:11:04;;;;;;;3.95;2.10;;;;;;;9.89;69.70;101720.84;4974147;28;20041;-74
2022/05/13 04:16:16;;;;;;;5.40;2.40;;;;;;;9.87;72.02;101730.34;4973539;28;20050;-74
2022/05/13 04:18:47;;;;;;;7.13;2.42;;;;;;;9.85;71.66;101732.91;4996249;23;20580;-75
2022/05/13 04:21:20;;;;;;;6.95;2.80;;;;;;;9.85;70.82;101726.88;4993028;28;20040;-75
2022/05/13 04:23:48;;;;;;;5.95;2.63;;;;;;;9.86;71.61;101726.00;4992116;28;20038;-74
2022/05/13 04:26:13;;;;;;;5.10;2.30;;;;;;;9.87;71.78;101725.16;4993342;28;20026;-75
2022/05/13 04:28:47;;;;;;;3.70;2.37;;;;;;;9.88;71.34;101719.09;4993170;28;20025;-74
2022/05/13 04:31:14;;;;;;;5.88;2.40;;;;;;;9.84;71.90;101725.13;4992322;28;20022;-75
2022/05/13 04:33:40;;;;;;;8.40;2.60;;;;;;;9.84;71.53;101726.03;4992888;28;20030;-74
2022/05/13 04:36:06;;;;;;;4.50;2.40;;;;;;;9.85;71.56;101734.66;4993965;28;20053;-74
2022/05/13 04:38:33;;;;;;;6.20;2.57;;;;;;;9.88;72.07;101747.63;4995697;28;20030;-74
2022/05/13 04:42:49;;;;;;;4.38;2.17;;;;;;;9.88;73.85;101743.28;4996756;28;20431;-75
2022/05/13 04:43:44;;;;;;;3.22;2.00;;;;;;;9.92;71.58;101740.72;4995018;28;20064;-75
2022/05/13 04:46:09;;;;;;;4.47;2.13;;;;;;;9.96;71.91;101752.84;4996780;28;20546;-75
2022/05/13 04:48:34;;;;;;;4.60;1.80;;;;;;;10.01;71.93;101758.88;4996537;28;20038;-75
2022/05/13 04:51:00;;;;;;;2.10;1.90;;;;;;;10.05;70.85;101751.09;4995531;28;20032;-75
2022/05/13 04:53:32;;;;;;;3.35;1.80;;;;;;;10.15;72.18;101753.69;4996663;28;20084;-75
2022/05/13 04:55:59;;;;;;;3.72;1.83;;;;;;;10.24;71.51;101755.44;4995857;28;20045;-74
2022/05/13 04:58:25;;;;;;;4.13;1.70;;;;;;;10.29;70.36;101754.59;4994645;28;20498;-75
2022/05/13 05:00:53;;;;;;;3.73;1.90;;;;;;;10.34;70.91;101757.19;4994854;28;20034;-75
2022/05/13 05:03:21;;;;;;;3.05;1.60;;;;;;;10.40;70.73;101767.63;4995592;28;20046;-75
2022/05/13 05:05:46;;;;;;;4.68;1.73;;;;;;;10.44;72.06;101768.47;4994219;28;20027;-74
2022/05/13 05:08:13;;;;;;;4.67;2.10;;;;;;;10.46;71.94;101767.59;4996356;28;20032;-75
2022/05/13 05:10:39;;;;;;;4.97;2.13;;;;;;;10.49;71.11;101774.50;4996328;28;20049;-75
2022/05/13 05:13:07;;;;;;;;;;;;;;;10.52;70.33;101781.47;4995592;28;20384;-74
2022/05/13 05:15:34;;;;;;;2.90;1.70;;;;;;;10.57;70.94;101771.91;4995707;28;19925;-74
2022/05/13 05:17:59;;;;;;;1.80;1.40;;;;;;;10.62;70.51;101783.19;4995402;28;20054;-74
2022/05/13 05:20:25;;;;;;;2.00;1.50;;;;;;;10.68;70.84;101780.56;4994824;28;20049;-75
2022/05/13 05:22:50;;;;;;;5.47;2.37;;;;;;;10.72;70.83;101786.63;4995332;28;20037;-75
2022/05/13 05:25:18;;;;;;;5.83;2.13;;;;;;;10.79;69.40;101789.22;4995674;28;20085;-75
2022/05/13 05:27:44;;;;;;;4.07;2.10;;;;;;;10.80;69.46;101787.50;4994616;28;20034;-75
2022/05/13 05:30:11;;;;;;;4.03;2.17;;;;;;;10.84;71.04;101791.81;4995175;28;20356;-75
2022/05/13 05:32:38;;;;;;;3.72;1.83;;;;;;;10.89;70.28;101797.00;4994242;28;20407;-75
2022/05/13 05:35:04;;;;;;;;;;;;;;;10.94;70.53;101801.31;4996041;28;20033;-76
2022/05/13 05:37:30;;;;;;;2.30;1.80;;;;;;;11.01;68.69;101802.16;4996048;28;19918;-76
2022/05/13 05:39:55;;;;;;;3.17;1.73;;;;;;;11.05;69.92;101810.81;4994102;28;20173;-76
2022/05/13 05:42:20;;;;;;;1.40;1.30;;;;;;;11.07;69.27;101809.09;4995099;28;20029;-77
2022/05/13 05:44:45;;;;;;;3.60;1.67;;;;;;;11.15;70.21;101816.88;4995470;28;20475;-77
2022/05/13 05:47:11;;;;;;;2.60;1.70;;;;;;;11.19;70.69;101827.25;4993978;28;20030;-77
2022/05/13 05:49:36;;;;;;;3.10;1.40;;;;;;;11.21;70.14;101825.53;4995186;28;20030;-78
2022/05/13 05:52:02;;;;;;;1.60;1.50;;;;;;;11.24;69.94;101832.44;4994978;28;20082;-78
2022/05/13 05:57:14;;;;;;;2.65;1.40;;;;;;;11.36;70.06;101837.59;4994781;28;20085;-77
2022/05/13 05:59:40;;;;;;;2.42;1.65;;;;;;;11.40;71.76;101835.84;4994529;28;20026;-76
2022/05/13 06:02:06;;;;;;;3.05;2.00;;;;;;;11.44;69.28;101832.41;4994551;28;20038;-78
2022/05/13 06:04:36;;;;;;;4.40;2.10;;;;;;;11.48;69.96;101839.31;4994936;28;20483;-77
2022/05/13 06:07:03;;;;;;;4.50;2.60;;;;;;;11.53;70.01;101844.50;4993959;28;20030;-77
2022/05/13 06:09:28;;;;;;;3.17;2.30;;;;;;;11.57;70.53;101841.00;4993635;28;20113;-79
2022/05/13 06:11:54;;;;;;;3.30;2.10;;;;;;;11.64;70.02;101845.34;4993912;28;20105;-76
2022/05/13 06:14:19;;;;;;;4.37;2.20;;;;;;;11.73;70.68;101840.09;4994216;28;20103;-74
2022/05/13 06:16:45;;;;;;;6.33;2.43;;;;;;;11.81;69.89;101842.66;4993034;28;20094;-75
2022/05/13 06:19:11;;;;;;;6.35;2.53;;;;;;;11.95;70.16;101850.41;4994911;28;20035;-75
2022/05/13 06:21:39;;;;;;;2.63;1.97;;;;;;;12.01;69.95;101855.59;4994307;28;20034;-75
2022/05/13 06:24:04;;;;;;;2.53;2.03;;;;;;;12.06;69.05;101852.97;4993956;28;20031;-75
2022/05/13 06:26:31;;;;;;;2.57;1.90;;;;;;;12.13;69.85;101864.19;4994244;28;20399;-75
2022/05/13 06:28:57;;;;;;;2.53;1.90;;;;;;;12.18;69.00;101865.06;4994017;28;20031;-75
2022/05/13 06:31:23;;;;;;;3.27;2.00;;;;;;;12.25;69.57;101865.88;4994777;28;20029;-75
2022/05/13 06:33:52;;;;;;;11.27;3.13;;;;;;;12.25;69.94;101855.47;4994372;28;20430;-75
2022/05/13 06:36:17;;;;;;;6.60;2.70;;;;;;;12.32;69.53;101867.56;4993759;28;20419;-75
2022/05/13 06:38:46;;;;;;;4.60;2.40;;;;;;;12.41;69.90;101867.50;4993277;28;20038;-75
2022/05/13 06:41:11;;;;;;;4.05;2.38;;;;;;;12.52;69.58;101863.09;4994473;28;20061;-75
2022/05/13 06:43:37;;;;;;;6.07;2.77;;;;;;;12.63;70.02;101867.34;4993365;28;20062;-75
2022/05/13 06:46:05;;;;;;;2.30;2.00;;;;;;;12.70;69.99;101866.44;4994581;28;20022;-75
2022/05/13 06:48:30;;;;;;;2.40;2.00;;;;;;;12.78;68.85;101869.84;4994593;28;20097;-75
2022/05/13 06:50:56;;;;;;;4.20;2.10;;;;;;;12.89;68.97;101874.97;4993502;28;20117;-75
2022/05/13 06:53:22;;;;;;;2.20;2.00;;;;;;;13.11;68.87;101875.66;4994316;28;20062;-75
2022/05/13 06:55:47;;;;;;;3.38;1.73;;;;;;;13.69;68.85;101875.06;4993877;28;20034;-75
2022/05/13 06:58:14;;;;;;;5.17;2.20;;;;;;;14.35;68.79;101861.16;4993433;28;20383;-77
2022/05/13 07:00:39;;;;;;;6.65;2.60;;;;;;;14.92;64.85;101867.25;4994143;28;20066;-77
2022/05/13 07:03:06;;;;;;;3.07;2.13;;;;;;;14.94;64.72;101875.94;4993804;28;20504;-75
2022/05/13 07:05:32;;;;;;;5.25;2.60;;;;;;;14.84;65.00;101871.75;4993340;28;20513;-75
2022/05/13 07:08:00;;;;;;;3.72;2.30;;;;;;;14.73;65.16;101876.28;4993707;28;20030;-75
2022/05/13 07:10:25;;;;;;;9.32;2.92;;;;;;;14.60;64.86;101876.44;4993888;28;20038;-75
2022/05/13 07:12:51;;;;;;;8.03;2.90;;;;;;;14.53;65.53;101872.19;4992698;28;20101;-76
2022/05/13 07:15:20;;;;;;;6.67;2.97;;;;;;;14.48;64.71;101874.03;4993834;28;20053;-77
2022/05/13 07:17:45;;;;;;;6.00;2.70;;;;;;;14.41;65.21;101885.47;4993487;28;20109;-76
2022/05/13 07:20:13;;;;;;;3.57;2.40;;;;;;;14.38;65.02;101877.66;4993170;28;20034;-76
2022/05/13 07:22:38;;;;;;;4.35;2.30;;;;;;;14.44;65.44;101874.94;4993362;28;20034;-76
2022/05/13 07:25:07;;;;;;;9.70;3.60;;;;;;;14.50;64.95;101874.88;4993334;28;20080;-77
2022/05/13 07:27:33;;;;;;;4.53;2.85;;;;;;;14.65;65.35;101873.75;4993529;28;20030;-76
2022/05/13 07:29:58;;;;;;;8.47;3.80;;;;;;;14.85;65.54;101873.47;4993467;28;20387;-77
2022/05/13 07:32:23;;;;;;;8.63;3.43;;;;;;;15.01;64.99;101870.59;4992778;28;20042;-76
2022/05/13 07:34:48;;;;;;;6.23;3.10;;;;;;;15.22;64.58;101880.66;4993470;28;20022;-76
2022/05/13 07:37:14;;;;;;;4.47;2.47;;;;;;;15.42;64.61;101882.91;4993487;28;20418;-76
2022/05/13 07:42:23;;;;;;;4.22;2.70;;;;;;;15.63;62.75;101887.78;4993510;28;20041;-77
2022/05/13 07:44:51;;;;;;;3.70;2.40;;;;;;;15.78;62.50;101891.81;4993183;28;20543;-76
2022/05/13 07:47:19;;;;;;;2.30;2.10;;;;;;;15.87;61.81;101889.03;4992506;28;20371;-77
2022/05/13 07:49:45;;;;;;;4.03;2.60;;;;;;;15.85;61.84;101891.72;4993077;28;20027;-77
2022/05/13 07:52:11;;;;;;;5.00;2.30;;;;;;;15.95;61.73;101892.34;4993044;28;20029;-76
2022/05/13 07:54:37;;;;;;;3.47;2.23;;;;;;;16.16;62.38;101892.78;4992421;28;20030;-77
2022/05/13 07:57:03;;;;;;;4.25;2.42;;;;;;;16.31;61.43;101897.69;4993545;28;20031;-77
2022/05/13 07:59:31;;;;;;;3.58;2.55;;;;;;;16.19;60.68;101883.13;4993238;28;20035;-76
2022/05/13 08:01:56;;;;;;;6.22;3.08;;;;;;;15.96;60.50;101901.09;4992127;28;20038;-76
2022/05/13 08:04:21;;;;;;;7.27;3.17;;;;;;;15.73;60.02;101903.25;4993031;28;20407;-77
2022/05/13 08:06:47;;;;;;;6.23;3.17;;;;;;;15.51;60.42;101901.94;4992987;28;20061;-77
2022/05/13 08:09:12;;;;;;;6.77;3.00;;;;;;;15.36;60.77;101906.59;4992637;28;20463;-76
2022/05/13 08:11:37;;;;;;;5.50;2.60;;;;;;;15.25;60.85;101906.75;4994748;28;20494;-76
2022/05/13 08:14:03;;;;;;;3.77;2.40;;;;;;;15.21;61.65;101904.22;4996970;28;20467;-76
2022/05/13 08:16:29;;;;;;;6.80;2.87;;;;;;;15.20;61.72;101902.50;4996267;28;20062;-76
2022/05/13 08:18:58;;;;;;;4.80;2.50;;;;;;;15.25;61.63;101909.38;4996312;28;20458;-76
2022/05/13 08:21:24;;;;;;;5.18;3.00;;;;;;;15.28;61.34;101914.56;4996097;28;20073;-76
2022/05/13 08:23:50;;;;;;;7.50;2.70;;;;;;;15.34;61.20;101908.34;4996559;28;20427;-76
2022/05/13 08:26:16;;;;;;;7.13;2.85;;;;;;;15.40;60.98;101904.78;4996961;28;20395;-77
2022/05/13 08:28:42;;;;;;;5.77;2.60;;;;;;;15.42;60.72;101914.31;4995710;28;20061;-76
2022/05/13 08:31:08;;;;;;;4.80;2.40;;;;;;;15.42;60.30;101916.91;4996911;28;20390;-76
2022/05/13 08:33:33;;;;;;;4.22;2.40;;;;;;;15.42;60.36;101913.44;4996832;28;20030;-76
2022/05/13 08:36:03;;;;;;;3.63;2.20;;;;;;;15.51;60.37;101915.00;4995881;28;20161;-76
2022/05/13 08:38:32;;;;;;;5.38;2.30;;;;;;;15.69;59.43;101919.03;4996643;28;20482;-76
2022/05/13 08:41:09;;;;;;;3.95;2.50;;;;;;;15.88;58.15;101920.41;4996348;28;20486;-76
2022/05/13 08:43:40;;;;;;;7.30;3.08;;;;;;;15.92;57.93;101916.00;4995741;28;20070;-76
2022/05/13 08:46:21;;;;;;;5.28;2.47;;;;;;;15.94;58.40;101919.44;4996530;28;20038;-77
2022/05/13 08:48:54;;;;;;;3.67;2.05;;;;;;;15.94;58.48;101921.19;4995958;28;20081;-77
2022/05/13 08:51:57;;;;;;;2.85;2.10;;;;;;;15.93;58.61;101922.94;4995927;28;20113;-77
2022/05/13 08:54:31;;;;;;;6.47;2.47;;;;;;;15.88;58.18;101922.19;4996494;28;20030;-77
2022/05/13 08:57:04;;;;;;;4.47;2.30;;;;;;;15.83;58.13;101927.47;4995479;28;20030;-77
2022/05/13 08:59:49;;;;;;;5.43;2.20;;;;;;;15.83;57.97;101932.72;4996584;28;20126;-76
2022/05/13 09:02:22;;;;;;;4.35;1.90;;;;;;;15.86;57.79;101924.84;4996238;28;20113;-76
2022/05/13 09:04:55;;;;;;;2.95;1.95;;;;;;;15.98;58.02;101934.19;4995194;28;20027;-76
2022/05/13 09:07:21;;;;;;;5.60;2.30;;;;;;;16.13;57.68;101933.00;4995984;28;20023;-76
2022/05/13 09:09:51;;;;;;;4.10;2.10;;;;;;;16.20;56.89;101924.13;4995884;28;20030;-77
2022/05/13 09:12:17;;;;;;;2.85;1.83;;;;;;;16.35;56.91;101922.94;4995545;28;20088;-76
2022/05/13 09:14:48;;;;;;;3.13;1.77;;;;;;;16.63;57.29;101924.06;4995791;28;20041;-76
2022/05/13 09:17:28;;;;;;;3.35;2.00;;;;;;;16.88;56.94;101913.84;4995826;28;20122;-77
2022/05/13 09:19:56;;;;;;;2.83;2.10;;;;;;;16.97;56.46;101920.66;4994815;28;20026;-77
2022/05/13 09:22:22;;;;;;;3.83;1.90;;;;;;;16.97;56.04;101923.28;4994837;28;20056;-76
2022/05/13 09:24:47;;;;;;;4.90;2.33;;;;;;;17.03;55.88;101924.88;4994621;28;20516;-77
2022/05/13 09:27:13;;;;;;;5.20;2.30;;;;;;;17.17;54.48;101919.28;4995065;28;20034;-76
2022/05/13 09:29:43;;;;;;;2.50;1.73;;;;;;;17.37;54.94;101931.88;4995483;28;20026;-76
2022/05/13 09:32:17;;;;;;;1.65;1.55;;;;;;;17.39;53.88;101925.69;4995177;28;20034;-76
2022/05/13 09:34:56;;;;;;;2.08;1.58;;;;;;;17.44;53.21;101925.56;4995635;28;20049;-76
2022/05/13 09:37:27;;;;;;;3.58;1.85;;;;;;;17.48;51.86;101934.19;4995962;28;20394;-77
2022/05/13 09:40:17;;;;;;;3.13;1.85;;;;;;;17.41;51.14;101941.38;4994610;28;20030;-76
2022/05/13 09:42:48;;;;;;;3.35;1.70;;;;;;;17.32;52.70;101934.63;4995090;28;20038;-76
2022/05/13 09:45:17;;;;;;;2.70;1.42;;;;;;;17.41;52.67;101939.63;4995780;28;20030;-76
2022/05/13 09:48:18;;;;;;;3.42;1.92;;;;;;;17.63;52.63;101940.78;4994364;28;20054;-77
2022/05/13 09:50:54;;;;;;;4.57;2.00;;;;;;;17.95;51.74;101937.28;4994209;28;20037;-76
2022/05/13 09:53:20;;;;;;;3.10;1.80;;;;;;;18.05;49.18;101936.13;4994193;28;20120;-75
2022/05/13 09:55:45;;;;;;;2.70;1.60;;;;;;;18.04;50.99;101936.19;4995030;28;20018;-75
2022/05/13 09:58:18;;;;;;;4.03;2.13;;;;;;;18.03;51.08;101945.81;4995434;28;20053;-76
2022/05/13 10:00:46;;;;;;;1.50;1.40;;;;;;;18.02;51.10;101946.72;4993871;28;20077;-76
2022/05/13 10:03:21;;;;;;;2.30;1.40;;;;;;;18.06;51.46;101945.72;4994487;28;20080;-76
2022/05/13 10:05:52;;;;;;;1.48;1.27;;;;;;;18.19;51.13;101942.75;4994660;28;20049;-76
2022/05/13 10:08:23;;;;;;;4.45;1.60;;;;;;;18.25;50.56;101931.19;4994339;28;20037;-76
2022/05/13 10:13:59;;;;;;;5.30;1.92;;;;;;;18.81;48.74;101944.31;4983260;28;20041;-77
2022/05/13 10:16:40;;;;;;;3.20;1.80;;;;;;;18.98;47.08;101940.28;4994825;28;20038;-76
2022/05/13 10:19:19;;;;;;;3.75;1.83;;;;;;;18.97;47.31;101936.81;4994431;28;20443;-76
2022/05/13 10:22:02;;;;;;;3.33;1.50;;;;;;;19.20;49.09;101929.91;4993510;28;20117;-76
2022/05/13 10:25:12;;;;;;;1.92;1.40;;;;;;;19.67;46.33;101937.03;4994276;28;20494;-77
2022/05/13 10:27:48;;;;;;;1.67;1.58;;;;;;;19.88;47.58;101947.72;4994011;28;20046;-76
2022/05/13 10:30:32;;;;;;;3.33;1.55;;;;;;;19.98;47.42;101949.13;4993862;28;20463;-76
2022/05/13 10:33:06;;;;;;;3.78;1.50;;;;;;;20.15;46.28;101945.84;4994436;28;20037;-76
2022/05/13 10:35:54;;;;;;;2.95;1.05;;;;;;;20.24;45.10;101949.91;4992736;28;20035;-77
2022/05/13 10:38:29;;;;;;;1.98;1.25;;;;;;;20.33;44.72;101940.78;4994099;28;20034;-77
2022/05/13 10:41:03;;;;;;;2.15;1.48;;;;;;;20.43;44.97;101951.84;4994017;28;20022;-77
2022/05/13 10:43:38;;;;;;;1.92;1.27;;;;;;;20.34;45.27;101939.88;4993275;28;20537;-77
2022/05/13 10:46:23;;;;;;;3.03;1.35;;;;;;;20.08;45.24;101941.72;4994382;28;20022;-77
2022/05/13 10:48:52;;;;;;;1.27;0.90;;;;;;;19.86;46.79;101942.53;4993784;28;20033;-77
2022/05/13 10:51:43;;;;;;;1.70;1.20;;;;;;;19.66;45.04;101943.22;4992987;28;20475;-77
2022/05/13 10:54:23;;;;;;;3.35;1.60;;;;;;;19.74;45.19;101933.28;4974850;28;20067;-76
2022/05/13 10:57:09;;;;;;;2.20;1.15;;;;;;;19.79;44.36;101921.72;4973414;28;20475;-77
2022/05/13 10:59:38;;;;;;;1.42;1.25;;;;;;;19.97;45.66;101942.16;4974480;28;20030;-77
2022/05/13 11:02:29;;;;;;;1.50;1.20;;;;;;;20.02;44.35;101940.19;4974465;28;20031;-76
2022/05/13 11:05:03;;;;;;;2.35;1.13;;;;;;;19.89;45.15;101936.28;4973605;28;20045;-76
2022/05/13 11:07:46;;;;;;;2.50;1.15;;;;;;;19.84;44.04;101943.47;4974404;28;20142;-77
2022/05/13 11:10:18;;;;;;;2.50;1.13;;;;;;;19.68;44.20;101940.56;4973742;28;20383;-77
2022/05/13 11:13:34;;;;;;;1.73;1.40;;;;;;;19.46;44.06;101941.31;4974694;28;20026;-77
2022/05/13 11:16:13;;;;;;;3.25;1.60;;;;;;;19.32;44.33;101954.09;4996346;28;20084;-77
2022/05/13 11:19:03;;;;;;;4.68;1.83;;;;;;;19.26;45.33;101950.75;4991711;28;20054;-77
2022/05/13 11:22:02;;;;;;;2.50;1.50;;;;;;;19.45;45.17;101955.41;4991543;28;20032;-77
2022/05/13 11:27:45;;;;;;;3.28;1.30;;;;;;;19.68;43.78;101948.44;4993322;28;20034;-77
2022/05/13 11:30:22;;;;;;;2.72;1.40;;;;;;;19.47;43.39;101945.69;4993380;28;20534;-77
2022/05/13 11:32:56;;;;;;;3.78;1.60;;;;;;;19.36;44.55;101958.34;4991521;28;20537;-77
2022/05/13 11:35:21;;;;;;;1.80;1.17;;;;;;;19.23;45.74;101961.41;4993050;28;20089;-77
2022/05/13 11:37:46;;;;;;;3.50;1.20;;;;;;;19.14;45.92;101944.16;4992966;28;20038;-77
2022/05/13 11:40:25;;;;;;;2.83;1.37;;;;;;;19.39;45.85;101947.69;4992695;28;20026;-78
2022/05/13 11:43:25;;;;;;;1.50;1.38;;;;;;;19.60;45.54;101940.81;4992970;28;20113;-77
2022/05/13 11:45:58;;;;;;;3.30;1.60;;;;;;;19.74;43.76;101941.19;4991391;28;20390;-78
2022/05/13 11:48:30;;;;;;;4.85;1.90;;;;;;;20.08;45.04;101939.09;4993463;28;20106;-78
2022/05/13 11:51:05;;;;;;;3.35;1.60;;;;;;;20.39;43.57;101937.91;4992887;28;20030;-78
2022/05/13 11:53:53;;;;;;;3.25;1.98;;;;;;;20.23;43.33;101939.44;4992073;28;20030;-78
2022/05/13 11:56:25;;;;;;;3.85;1.60;;;;;;;20.07;43.94;101947.91;4992973;28;20030;-78
2022/05/13 11:59:26;;;;;;;2.70;1.50;;;;;;;19.84;42.24;101948.75;4992838;28;20566;-79
2022/05/13 12:01:53;;;;;;;2.83;1.40;;;;;;;19.69;43.32;101953.66;4991044;28;20066;-78